Fritch, Texas
Current Conditions -  °F | °C
As of 3:51 AM on Saturday 01 Nov 2014 (Local Time) from KBGD Reporting Station
Few Clouds Few Clouds  
Wind Chill: 33°   Ceiling: Unl
Heat Index: 41°   Visibility: 10mi
Dew Point: 23°   Wind: 15mph
Humidity: 49%   Direction: 160°SSE
Pressure: 30.27"   Gusts: 25mph
Location:  35.64°N, 101.6°W
Report Text: KBGD 010851Z AUTO 16013G22KT 10SM FEW060 05/M05 A3027 RMK AO2 PK WND 16026/0754 SLP241 T00501050 58009
Loading
Personal Weather Stations






























Interactive Weather Map
Tropical Storm Tracking
New forecast layout! Learn more

10-Day Weather Forecast

Advertisements
Track Severe Weather on mobile